createdAt,value
2023-05-21T00:00:30.383Z,4.40
2023-05-21T00:02:59.482Z,5.50
2023-05-21T00:05:26.916Z,5.55
2023-05-21T00:07:55.008Z,5.25
2023-05-21T00:10:22.399Z,7.55
2023-05-21T00:12:49.832Z,5.88
2023-05-21T00:15:16.945Z,7.07
2023-05-21T00:17:44.619Z,6.13
2023-05-21T00:20:13.136Z,5.70
2023-05-21T00:22:42.439Z,5.82
2023-05-21T00:25:11.817Z,5.70
2023-05-21T00:27:38.938Z,5.13
2023-05-21T00:30:07.108Z,4.57
2023-05-21T00:32:34.606Z,8.45
2023-05-21T00:35:01.755Z,6.53
2023-05-21T00:37:33.011Z,5.72
2023-05-21T00:40:01.797Z,5.22
2023-05-21T00:42:30.627Z,5.10
2023-05-21T00:44:57.961Z,4.65
2023-05-21T00:47:27.042Z,6.18
2023-05-21T00:49:54.548Z,6.10
2023-05-21T00:52:23.114Z,6.03
2023-05-21T00:54:51.135Z,9.15
2023-05-21T00:57:23.323Z,5.32
2023-05-21T00:59:53.183Z,5.93
2023-05-21T01:02:20.586Z,5.22
2023-05-21T01:04:48.008Z,6.15
2023-05-21T01:07:15.108Z,6.45
2023-05-21T01:09:43.254Z,7.20
2023-05-21T01:12:11.562Z,5.25
2023-05-21T01:14:40.019Z,4.45
2023-05-21T01:17:10.408Z,5.82
2023-05-21T01:19:38.294Z,4.60
2023-05-21T01:22:08.211Z,5.00
2023-05-21T01:24:37.873Z,6.10
2023-05-21T01:27:07.838Z,6.35
2023-05-21T01:29:34.988Z,6.18
2023-05-21T01:32:14.050Z,5.80
2023-05-21T01:35:02.838Z,5.78
2023-05-21T01:38:03.868Z,6.18
2023-05-21T01:40:38.341Z,5.40
2023-05-21T01:43:07.708Z,6.65
2023-05-21T01:45:39.520Z,4.88
2023-05-21T01:48:09.065Z,8.02
2023-05-21T01:50:39.375Z,4.47
2023-05-21T01:53:06.495Z,5.95
2023-05-21T01:55:34.112Z,5.68
2023-05-21T01:58:02.496Z,6.70
2023-05-21T02:00:30.905Z,6.15
2023-05-21T02:02:58.785Z,5.20
2023-05-21T02:05:26.219Z,7.53
2023-05-21T02:07:53.396Z,7.10
2023-05-21T02:10:20.658Z,8.82
2023-05-21T02:12:47.978Z,7.88
2023-05-21T02:15:17.927Z,8.70
2023-05-21T02:17:46.561Z,9.60
2023-05-21T02:20:14.568Z,7.00
2023-05-21T02:22:45.109Z,7.97
2023-05-21T02:25:15.893Z,6.25
2023-05-21T02:27:44.526Z,7.50
2023-05-21T02:30:13.738Z,6.28
2023-05-21T02:32:43.154Z,7.70
2023-05-21T02:35:12.560Z,7.13
2023-05-21T02:37:40.693Z,5.85
2023-05-21T02:40:10.185Z,7.05
2023-05-21T02:42:40.183Z,8.32
2023-05-21T02:45:13.571Z,5.07
2023-05-21T02:47:41.186Z,9.57
2023-05-21T02:50:09.689Z,5.90
2023-05-21T02:52:36.720Z,6.25
2023-05-21T02:55:04.153Z,5.50
2023-05-21T02:57:31.251Z,5.97
2023-05-21T02:59:58.284Z,5.88
2023-05-21T03:02:25.394Z,4.85
2023-05-21T03:04:52.502Z,6.38
2023-05-21T03:07:20.022Z,6.30
2023-05-21T03:09:47.437Z,8.75
2023-05-21T03:12:14.571Z,6.97
2023-05-21T03:14:46.440Z,6.45
2023-05-21T03:17:17.462Z,5.38
2023-05-21T03:19:45.151Z,6.47
2023-05-21T03:22:12.319Z,5.75
2023-05-21T03:24:41.376Z,3.97
2023-05-21T03:27:08.526Z,5.05
2023-05-21T03:29:36.173Z,4.65
2023-05-21T03:32:03.581Z,5.72
2023-05-21T03:34:31.251Z,6.15
2023-05-21T03:36:58.416Z,5.05
2023-05-21T03:39:25.546Z,5.57
2023-05-21T03:41:52.635Z,4.68
2023-05-21T03:44:19.695Z,5.22
2023-05-21T03:46:46.912Z,4.93
2023-05-21T03:49:14.736Z,5.40
2023-05-21T03:51:41.777Z,6.07
2023-05-21T03:54:08.890Z,5.72
2023-05-21T03:56:35.975Z,7.15
2023-05-21T03:59:03.053Z,6.53
2023-05-21T04:01:30.755Z,5.07
2023-05-21T04:03:57.950Z,5.28
2023-05-21T04:06:25.238Z,6.85
2023-05-21T04:08:52.400Z,8.10
2023-05-21T04:11:19.441Z,6.55
2023-05-21T04:13:48.163Z,4.97
2023-05-21T04:16:19.291Z,5.97
2023-05-21T04:18:47.536Z,8.23
2023-05-21T04:21:14.704Z,5.75
2023-05-21T04:23:41.843Z,5.90
2023-05-21T04:26:08.900Z,6.43
2023-05-21T04:28:36.425Z,6.60
2023-05-21T04:31:03.531Z,8.27
2023-05-21T04:33:30.592Z,5.40
2023-05-21T04:35:59.047Z,7.93
2023-05-21T04:38:26.106Z,5.82
2023-05-21T04:40:53.618Z,4.60
2023-05-21T04:43:26.540Z,5.63
2023-05-21T04:45:57.199Z,6.80
2023-05-21T04:48:25.623Z,7.63
2023-05-21T04:50:53.709Z,5.40
2023-05-21T04:53:20.916Z,4.82
2023-05-21T04:55:48.184Z,7.47
2023-05-21T04:58:18.380Z,7.72
2023-05-21T05:00:50.766Z,5.80
2023-05-21T05:03:18.158Z,8.80
2023-05-21T05:05:45.911Z,6.38
2023-05-21T05:08:15.812Z,6.80
2023-05-21T05:10:43.337Z,6.68
2023-05-21T05:13:10.581Z,12.80
2023-05-21T05:15:37.890Z,5.85
2023-05-21T05:18:06.619Z,7.90
2023-05-21T05:20:33.693Z,4.93
2023-05-21T05:23:00.865Z,6.10
2023-05-21T05:25:27.883Z,6.00
2023-05-21T05:27:54.925Z,7.10
2023-05-21T05:30:22.018Z,5.53
2023-05-21T05:32:49.088Z,5.95
2023-05-21T05:35:16.180Z,7.00
2023-05-21T05:37:43.265Z,6.25
2023-05-21T05:40:11.044Z,7.00
2023-05-21T05:42:38.092Z,5.22
2023-05-21T05:45:05.883Z,5.43
2023-05-21T05:47:33.097Z,7.05
2023-05-21T05:50:00.204Z,4.90
2023-05-21T05:52:27.309Z,8.32
2023-05-21T05:54:54.376Z,7.03
2023-05-21T05:57:21.399Z,6.70
2023-05-21T05:59:48.541Z,7.70
2023-05-21T06:02:15.965Z,9.10
2023-05-21T06:04:43.376Z,7.35
2023-05-21T06:07:11.518Z,6.22
2023-05-21T06:09:39.074Z,5.75
2023-05-21T06:12:07.628Z,6.68
2023-05-21T06:14:34.992Z,11.00
2023-05-21T06:17:02.084Z,8.27
2023-05-21T06:19:29.290Z,10.23
2023-05-21T06:21:56.455Z,6.97
2023-05-21T06:24:23.578Z,5.50
2023-05-21T06:26:50.776Z,8.98
2023-05-21T06:29:18.151Z,6.53
2023-05-21T06:31:45.208Z,6.20
2023-05-21T06:34:12.422Z,8.90
2023-05-21T06:36:39.699Z,6.05
2023-05-21T06:39:06.963Z,6.72
2023-05-21T06:41:34.139Z,7.93
2023-05-21T06:44:01.494Z,8.13
2023-05-21T06:46:28.654Z,7.43
2023-05-21T06:48:56.138Z,11.20
2023-05-21T06:51:23.241Z,5.90
2023-05-21T06:53:51.047Z,7.35
2023-05-21T06:56:18.529Z,6.60
2023-05-21T06:58:45.955Z,7.95
2023-05-21T07:01:13.089Z,6.72
2023-05-21T07:03:40.386Z,8.50
2023-05-21T07:06:07.733Z,6.78
2023-05-21T07:08:34.959Z,6.65
2023-05-21T07:11:02.208Z,6.35
2023-05-21T07:13:30.194Z,9.13
2023-05-21T07:15:57.389Z,7.97
2023-05-21T07:18:24.425Z,7.28
2023-05-21T07:20:51.500Z,6.78
2023-05-21T07:23:18.571Z,7.72
2023-05-21T07:25:45.678Z,8.55
2023-05-21T07:28:12.844Z,7.68
2023-05-21T07:30:39.930Z,6.93
2023-05-21T07:33:07.183Z,7.38
2023-05-21T07:35:34.456Z,7.32
2023-05-21T07:38:01.642Z,8.18
2023-05-21T07:40:28.803Z,9.15
2023-05-21T07:42:56.331Z,6.32
2023-05-21T07:45:23.433Z,9.85
2023-05-21T07:47:50.839Z,7.60
2023-05-21T07:50:18.120Z,10.30
2023-05-21T07:52:45.204Z,8.27
2023-05-21T07:55:12.529Z,9.20
2023-05-21T07:57:39.739Z,9.60
2023-05-21T08:00:09.690Z,9.90
2023-05-21T08:02:37.365Z,8.02
2023-05-21T08:05:05.055Z,6.75
2023-05-21T08:07:32.666Z,8.25
2023-05-21T08:10:01.074Z,8.13
2023-05-21T08:12:29.682Z,7.53
2023-05-21T08:14:59.287Z,9.02
2023-05-21T08:17:28.433Z,10.00
2023-05-21T08:19:55.514Z,8.38
2023-05-21T08:22:22.692Z,9.38
2023-05-21T08:24:49.895Z,8.55
2023-05-21T08:27:16.852Z,7.38
2023-05-21T08:29:44.417Z,7.78
2023-05-21T08:32:11.625Z,8.00
2023-05-21T08:34:39.157Z,7.80
2023-05-21T08:37:06.217Z,7.88
2023-05-21T08:39:33.166Z,10.35
2023-05-21T08:42:22.580Z,8.98
2023-05-21T08:45:01.071Z,9.18
2023-05-21T08:47:34.371Z,10.05
2023-05-21T08:50:04.520Z,10.48
2023-05-21T08:52:34.912Z,13.60
2023-05-21T08:55:06.431Z,9.48
2023-05-21T08:57:33.655Z,8.85
2023-05-21T09:00:01.995Z,9.93
2023-05-21T09:02:34.343Z,11.73
2023-05-21T09:05:03.602Z,13.23
2023-05-21T09:07:34.341Z,11.07
2023-05-21T09:10:08.822Z,10.85
2023-05-21T09:12:36.569Z,10.20
2023-05-21T09:15:04.541Z,9.10
2023-05-21T09:17:31.879Z,9.57
2023-05-21T09:20:14.783Z,9.77
2023-05-21T09:22:47.708Z,10.95
2023-05-21T09:25:18.098Z,9.55
2023-05-21T09:27:45.390Z,15.63
2023-05-21T09:30:17.871Z,9.35
2023-05-21T09:32:46.321Z,9.60
2023-05-21T09:35:16.429Z,14.00
2023-05-21T09:37:47.560Z,10.75
2023-05-21T09:40:20.730Z,11.43
2023-05-21T09:42:50.577Z,13.02
2023-05-21T09:45:25.519Z,9.35
2023-05-21T09:47:56.131Z,12.18
2023-05-21T09:50:31.575Z,9.80
2023-05-21T09:52:58.820Z,10.95
2023-05-21T09:55:27.067Z,13.02
2023-05-21T09:57:54.428Z,11.93
2023-05-21T10:00:27.995Z,11.98
2023-05-21T10:02:58.114Z,11.73
2023-05-21T10:05:28.306Z,14.55
2023-05-21T10:08:02.533Z,9.95
2023-05-21T10:10:31.969Z,10.48
2023-05-21T10:13:09.032Z,10.38
2023-05-21T10:15:45.593Z,12.25
2023-05-21T10:18:14.038Z,9.55
2023-05-21T10:20:43.618Z,12.93
2023-05-21T10:23:11.213Z,12.00
2023-05-21T10:25:38.373Z,11.80
2023-05-21T10:28:07.128Z,13.13
2023-05-21T10:30:36.362Z,12.55
2023-05-21T10:33:05.723Z,12.05
2023-05-21T10:35:34.536Z,11.98
2023-05-21T10:38:05.146Z,11.73
2023-05-21T10:40:32.381Z,11.75
2023-05-21T10:43:20.718Z,11.40
2023-05-21T10:46:40.601Z,12.48
2023-05-21T10:49:16.281Z,12.57
2023-05-21T10:51:48.813Z,14.43
2023-05-21T10:54:44.439Z,13.80
2023-05-21T10:57:47.253Z,11.05
2023-05-21T11:00:18.341Z,11.93
2023-05-21T11:02:46.142Z,11.82
2023-05-21T11:05:14.357Z,11.88
2023-05-21T11:07:57.662Z,15.18
2023-05-21T11:10:41.115Z,12.82
2023-05-21T11:13:14.385Z,13.52
2023-05-21T11:15:59.805Z,12.52
2023-05-21T11:18:35.891Z,13.80
2023-05-21T11:21:22.667Z,13.73
2023-05-21T11:24:02.434Z,13.43
2023-05-21T11:26:52.578Z,12.77
2023-05-21T11:29:47.309Z,13.95
2023-05-21T11:32:15.726Z,15.60
2023-05-21T11:34:47.889Z,13.80
2023-05-21T11:37:23.133Z,13.05
2023-05-21T11:39:51.586Z,17.02
2023-05-21T11:42:33.518Z,13.88
2023-05-21T11:45:02.989Z,13.38
2023-05-21T11:47:32.219Z,14.35
2023-05-21T11:50:02.279Z,16.17
2023-05-21T11:52:31.742Z,16.17
2023-05-21T11:54:59.987Z,16.35
2023-05-21T11:57:32.194Z,15.45
2023-05-21T12:00:02.405Z,15.50
2023-05-21T12:02:33.426Z,16.48
2023-05-21T12:05:03.965Z,12.70
2023-05-21T12:07:31.428Z,15.93
2023-05-21T12:09:58.808Z,16.05
2023-05-21T12:12:33.078Z,13.43
2023-05-21T12:15:10.389Z,14.07
2023-05-21T12:17:37.698Z,15.32
2023-05-21T12:20:08.210Z,15.93
2023-05-21T12:22:40.733Z,14.02
2023-05-21T12:25:08.647Z,14.85
2023-05-21T12:27:37.204Z,15.15
2023-05-21T12:30:05.045Z,16.27
2023-05-21T12:32:32.466Z,15.48
2023-05-21T12:34:59.589Z,15.48
2023-05-21T12:37:35.561Z,16.23
2023-05-21T12:40:12.027Z,15.25
2023-05-21T12:42:40.234Z,15.38
2023-05-21T12:45:08.988Z,12.85
2023-05-21T12:47:36.828Z,14.98
2023-05-21T12:50:11.696Z,14.48
2023-05-21T12:52:43.191Z,16.27
2023-05-21T12:55:14.966Z,14.57
2023-05-21T12:57:43.906Z,13.25
2023-05-21T13:00:12.065Z,17.75
2023-05-21T13:02:41.314Z,12.32
2023-05-21T13:05:11.516Z,15.95
2023-05-21T13:07:41.003Z,13.05
2023-05-21T13:10:09.038Z,13.50
2023-05-21T13:12:36.634Z,13.82
2023-05-21T13:15:09.211Z,12.75
2023-05-21T13:17:36.339Z,13.05
2023-05-21T13:20:16.494Z,15.40
2023-05-21T13:22:50.011Z,15.93
2023-05-21T13:25:21.215Z,13.43
2023-05-21T13:27:53.664Z,13.52
2023-05-21T13:30:22.527Z,13.27
2023-05-21T13:32:49.744Z,13.10
2023-05-21T13:35:17.532Z,15.85
2023-05-21T13:37:45.422Z,13.10
2023-05-21T13:40:15.778Z,14.63
2023-05-21T13:42:45.126Z,13.20
2023-05-21T13:45:15.653Z,13.32
2023-05-21T13:47:44.369Z,13.27
2023-05-21T13:50:12.004Z,14.20
2023-05-21T13:52:39.334Z,12.93
2023-05-21T13:55:07.404Z,13.25
2023-05-21T13:57:34.671Z,15.02
2023-05-21T14:00:01.994Z,13.93
2023-05-21T14:02:29.528Z,13.70
2023-05-21T14:04:57.320Z,11.88
2023-05-21T14:07:24.404Z,13.65
2023-05-21T14:09:52.385Z,15.38
2023-05-21T14:12:19.549Z,12.15
2023-05-21T14:14:49.684Z,12.63
2023-05-21T14:17:18.282Z,13.50
2023-05-21T14:19:45.325Z,11.98
2023-05-21T14:22:12.419Z,14.25
2023-05-21T14:24:39.604Z,13.02
2023-05-21T14:27:06.878Z,12.60
2023-05-21T14:29:33.877Z,15.45
2023-05-21T14:32:01.016Z,13.00
2023-05-21T14:34:28.189Z,13.30
2023-05-21T14:36:55.311Z,11.43
2023-05-21T14:39:22.389Z,15.52
2023-05-21T14:41:51.332Z,13.23
2023-05-21T14:44:18.420Z,14.98
2023-05-21T14:46:45.502Z,12.98
2023-05-21T14:49:13.265Z,12.27
2023-05-21T14:51:40.844Z,12.48
2023-05-21T14:54:07.870Z,14.77
2023-05-21T14:56:34.890Z,12.20
2023-05-21T14:59:01.940Z,13.30
2023-05-21T15:01:29.029Z,11.15
2023-05-21T15:03:58.432Z,12.27
2023-05-21T15:06:25.588Z,13.00
2023-05-21T15:08:52.757Z,10.60
2023-05-21T15:11:19.826Z,10.88
2023-05-21T15:13:46.905Z,11.98
2023-05-21T15:16:14.132Z,12.13
2023-05-21T15:18:41.146Z,11.55
2023-05-21T15:21:08.750Z,15.07
2023-05-21T15:23:35.736Z,13.65
2023-05-21T15:26:02.806Z,11.88
2023-05-21T15:28:29.835Z,11.60
2023-05-21T15:30:56.966Z,11.38
2023-05-21T15:33:24.048Z,11.68
2023-05-21T15:35:51.251Z,10.98
2023-05-21T15:38:18.397Z,12.73
2023-05-21T15:40:45.488Z,11.00
2023-05-21T15:43:12.515Z,12.48
2023-05-21T15:45:39.686Z,10.77
2023-05-21T15:48:07.391Z,12.18
2023-05-21T15:50:35.800Z,10.93
2023-05-21T15:53:04.776Z,12.13
2023-05-21T15:55:35.059Z,11.82
2023-05-21T15:58:03.745Z,12.15
2023-05-21T16:00:30.782Z,12.43
2023-05-21T16:02:58.124Z,13.30
2023-05-21T16:05:26.090Z,11.43
2023-05-21T16:07:53.171Z,13.57
2023-05-21T16:10:23.774Z,11.07
2023-05-21T16:12:51.142Z,10.93
2023-05-21T16:15:18.226Z,12.70
2023-05-21T16:17:45.467Z,10.85
2023-05-21T16:20:13.124Z,10.98
2023-05-21T16:22:40.670Z,11.13
2023-05-21T16:25:08.725Z,10.85
2023-05-21T16:27:36.272Z,10.82
2023-05-21T16:30:04.156Z,13.88
2023-05-21T16:32:31.237Z,12.98
2023-05-21T16:34:58.421Z,11.77
2023-05-21T16:37:27.094Z,10.85
2023-05-21T16:39:54.315Z,10.85
2023-05-21T16:42:21.424Z,12.90
2023-05-21T16:44:48.690Z,10.80
2023-05-21T16:47:15.965Z,13.07
2023-05-21T16:49:42.971Z,12.20
2023-05-21T16:52:10.126Z,11.85
2023-05-21T16:54:37.393Z,12.73
2023-05-21T16:57:04.604Z,10.88
2023-05-21T16:59:31.783Z,12.45
2023-05-21T17:01:59.084Z,11.60
2023-05-21T17:04:26.494Z,11.77
2023-05-21T17:06:53.576Z,11.95
2023-05-21T17:09:20.794Z,10.88
2023-05-21T17:11:47.874Z,12.15
2023-05-21T17:14:23.332Z,10.90
2023-05-21T17:17:00.022Z,11.60
2023-05-21T17:19:27.261Z,12.43
2023-05-21T17:21:57.617Z,10.70
2023-05-21T17:24:25.257Z,10.35
2023-05-21T17:26:53.845Z,11.68
2023-05-21T17:29:23.260Z,13.95
2023-05-21T17:31:50.407Z,12.38
2023-05-21T17:34:18.032Z,11.38
2023-05-21T17:36:45.184Z,11.60
2023-05-21T17:39:12.573Z,11.43
2023-05-21T17:41:39.796Z,10.95
2023-05-21T17:44:06.833Z,10.85
2023-05-21T17:46:34.314Z,11.55
2023-05-21T17:49:02.600Z,13.13
2023-05-21T17:51:29.619Z,10.38
2023-05-21T17:53:56.660Z,13.82
2023-05-21T17:56:23.767Z,11.23
2023-05-21T17:58:51.396Z,11.32
2023-05-21T18:01:19.506Z,11.90
2023-05-21T18:03:47.129Z,11.75
2023-05-21T18:06:14.392Z,10.30
2023-05-21T18:08:41.591Z,12.02
2023-05-21T18:11:10.509Z,10.52
2023-05-21T18:13:37.727Z,14.43
2023-05-21T18:16:05.889Z,11.65
2023-05-21T18:18:33.044Z,13.27
2023-05-21T18:21:00.381Z,11.77
2023-05-21T18:23:28.871Z,14.60
2023-05-21T18:25:56.562Z,11.25
2023-05-21T18:28:23.762Z,12.90
2023-05-21T18:30:50.938Z,10.63
2023-05-21T18:33:18.025Z,11.43
2023-05-21T18:35:45.226Z,12.45
2023-05-21T18:38:12.987Z,12.27
2023-05-21T18:40:40.081Z,11.45
2023-05-21T18:43:07.207Z,11.95
2023-05-21T18:45:34.658Z,14.65
2023-05-21T18:48:03.166Z,11.70
2023-05-21T18:50:31.786Z,11.40
2023-05-21T18:52:59.044Z,15.45
2023-05-21T18:55:26.481Z,12.27
2023-05-21T18:57:55.633Z,11.95
2023-05-21T19:00:23.102Z,12.18
2023-05-21T19:02:50.161Z,11.57
2023-05-21T19:05:17.559Z,13.30
2023-05-21T19:07:44.796Z,14.30
2023-05-21T19:10:12.631Z,13.15
2023-05-21T19:12:41.881Z,14.35
2023-05-21T19:15:10.035Z,14.15
2023-05-21T19:17:39.089Z,12.30
2023-05-21T19:20:10.458Z,13.68
2023-05-21T19:22:37.828Z,14.85
2023-05-21T19:25:05.487Z,12.07
2023-05-21T19:27:32.595Z,14.07
2023-05-21T19:29:59.666Z,12.57
2023-05-21T19:32:26.798Z,12.13
2023-05-21T19:34:53.807Z,12.15
2023-05-21T19:37:20.894Z,11.90
2023-05-21T19:39:50.017Z,11.90
2023-05-21T19:42:21.380Z,10.77
2023-05-21T19:44:48.685Z,10.98
2023-05-21T19:47:15.823Z,10.15
2023-05-21T19:49:43.090Z,9.90
2023-05-21T19:52:10.540Z,10.25
2023-05-21T19:54:37.642Z,8.60
2023-05-21T19:57:05.084Z,9.88
2023-05-21T19:59:32.188Z,10.35
2023-05-21T20:01:59.385Z,8.20
2023-05-21T20:04:26.781Z,9.15
2023-05-21T20:06:53.970Z,9.45
2023-05-21T20:09:21.205Z,10.93
2023-05-21T20:11:48.354Z,9.85
2023-05-21T20:14:15.560Z,8.80
2023-05-21T20:16:42.785Z,11.68
2023-05-21T20:19:10.868Z,12.68
2023-05-21T20:21:38.072Z,9.43
2023-05-21T20:24:05.808Z,12.50
2023-05-21T20:26:35.303Z,9.60
2023-05-21T20:29:02.426Z,8.52
2023-05-21T20:31:29.714Z,10.38
2023-05-21T20:33:56.867Z,9.73
2023-05-21T20:36:26.266Z,11.77
2023-05-21T20:38:53.330Z,8.55
2023-05-21T20:41:20.365Z,9.63
2023-05-21T20:43:47.667Z,9.73
2023-05-21T20:46:17.489Z,9.90
2023-05-21T20:48:44.701Z,13.10
2023-05-21T20:51:12.223Z,9.93
2023-05-21T20:53:39.194Z,8.10
2023-05-21T20:56:08.040Z,8.00
2023-05-21T20:58:36.599Z,11.45
2023-05-21T21:01:03.694Z,12.45
2023-05-21T21:03:33.896Z,7.68
2023-05-21T21:06:01.246Z,10.63
2023-05-21T21:08:28.268Z,8.75
2023-05-21T21:10:55.316Z,7.25
2023-05-21T21:13:22.324Z,10.95
2023-05-21T21:15:49.408Z,8.52
2023-05-21T21:18:16.840Z,11.30
2023-05-21T21:20:49.409Z,9.23
2023-05-21T21:23:16.665Z,9.05
2023-05-21T21:25:43.850Z,9.43
2023-05-21T21:28:11.029Z,7.85
2023-05-21T21:30:41.369Z,10.43
2023-05-21T21:33:08.914Z,10.82
2023-05-21T21:35:36.045Z,8.63
2023-05-21T21:38:04.981Z,8.52
2023-05-21T21:40:32.145Z,8.38
2023-05-21T21:42:59.227Z,10.00
2023-05-21T21:45:26.329Z,12.43
2023-05-21T21:47:53.404Z,12.73
2023-05-21T21:50:20.509Z,10.55
2023-05-21T21:52:48.913Z,12.60
2023-05-21T21:55:16.136Z,8.35
2023-05-21T21:57:43.203Z,11.60
2023-05-21T22:00:20.931Z,10.75
2023-05-21T22:02:48.085Z,13.10
2023-05-21T22:05:15.318Z,11.75
2023-05-21T22:07:46.471Z,12.52
2023-05-21T22:10:17.418Z,16.05
2023-05-21T22:12:46.191Z,14.40
2023-05-21T22:15:28.766Z,11.90
2023-05-21T22:17:56.039Z,11.88
2023-05-21T22:20:23.354Z,15.15
2023-05-21T22:22:50.610Z,14.05
2023-05-21T22:25:17.783Z,15.85
2023-05-21T22:27:45.036Z,14.40
2023-05-21T22:30:12.591Z,14.23
2023-05-21T22:32:39.803Z,15.65
2023-05-21T22:35:07.990Z,11.88
2023-05-21T22:37:37.258Z,15.30
2023-05-21T22:40:09.223Z,13.98
2023-05-21T22:42:36.572Z,16.40
2023-05-21T22:45:04.300Z,16.42
2023-05-21T22:47:32.270Z,14.13
2023-05-21T22:50:00.726Z,15.40
2023-05-21T22:52:28.761Z,14.98
2023-05-21T22:54:57.863Z,16.70
2023-05-21T22:57:24.968Z,14.35
2023-05-21T22:59:51.946Z,14.30
2023-05-21T23:02:19.151Z,15.23
2023-05-21T23:04:46.443Z,15.55
2023-05-21T23:07:13.664Z,17.35
2023-05-21T23:09:41.083Z,18.83
2023-05-21T23:12:10.044Z,19.65
2023-05-21T23:14:37.037Z,20.67
2023-05-21T23:17:04.525Z,20.25
2023-05-21T23:19:32.974Z,17.75
2023-05-21T23:22:00.479Z,20.50
2023-05-21T23:24:29.356Z,17.25
2023-05-21T23:27:01.698Z,17.67
2023-05-21T23:29:30.370Z,16.65
2023-05-21T23:31:57.879Z,20.48
2023-05-21T23:34:25.588Z,18.27
2023-05-21T23:36:52.941Z,18.42
2023-05-21T23:39:20.000Z,17.95
2023-05-21T23:41:47.241Z,18.35
2023-05-21T23:44:15.423Z,19.05
2023-05-21T23:46:45.709Z,18.10
2023-05-21T23:49:12.784Z,18.52
2023-05-21T23:51:40.091Z,16.52
2023-05-21T23:54:08.125Z,19.50
2023-05-21T23:56:35.269Z,15.88
2023-05-21T23:59:02.313Z,18.65
